Time;durP1;ratioP1;P1;durP2;ratioP2;P2;SDS_P1;SDS_P2;PMS_P1;PMS_P2;Temp;Humidity;BMP_temperature;BMP_pressure;BME280_temperature;BME280_humidity;BME280_pressure;Samples;Min_cycle;Max_cycle;Signal;HPM_P1;HPM_P2
2023/09/15 00:01:14;;;;;;;4.07;2.85;;;19.00;66.30;;;;;;4996526;28;20364;-79
2023/09/15 00:03:40;;;;;;;3.55;2.90;;;19.00;66.30;;;;;;4963947;28;20041;-78
2023/09/15 00:06:06;;;;;;;4.20;2.80;;;19.00;66.40;;;;;;5012422;28;20383;-78
2023/09/15 00:08:33;;;;;;;3.85;2.78;;;19.00;66.40;;;;;;4996167;28;20041;-78
2023/09/15 00:10:59;;;;;;;4.20;2.97;;;19.00;66.40;;;;;;5012670;28;20108;-80
2023/09/15 00:13:25;;;;;;;4.18;2.88;;;18.90;66.30;;;;;;4995926;28;20125;-78
2023/09/15 00:15:51;;;;;;;3.65;2.83;;;18.90;66.40;;;;;;4980038;28;20137;-78
2023/09/15 00:18:20;;;;;;;3.78;2.80;;;18.90;66.40;;;;;;4983956;28;20045;-78
2023/09/15 00:20:46;;;;;;;3.25;2.58;;;18.90;66.40;;;;;;5017163;28;20030;-77
2023/09/15 00:23:12;;;;;;;4.60;2.88;;;18.80;66.40;;;;;;4999918;28;20041;-78
2023/09/15 00:25:37;;;;;;;3.88;2.85;;;18.80;66.50;;;;;;4999893;28;20037;-77
2023/09/15 00:28:04;;;;;;;3.55;2.78;;;18.80;66.40;;;;;;4983450;28;20486;-78
2023/09/15 00:30:30;;;;;;;3.55;2.70;;;18.80;66.50;;;;;;5015846;28;20131;-79
2023/09/15 00:32:57;;;;;;;5.15;2.85;;;18.80;66.50;;;;;;5016692;28;20089;-78
2023/09/15 00:35:26;;;;;;;3.03;2.50;;;18.80;66.50;;;;;;4983534;28;20088;-78
2023/09/15 00:37:55;;;;;;;4.22;2.95;;;18.80;66.50;;;;;;5015894;28;20086;-78
2023/09/15 00:40:21;;;;;;;3.67;2.60;;;18.70;66.50;;;;;;5016858;28;20029;-78
2023/09/15 00:42:49;;;;;;;4.45;2.92;;;18.70;66.50;;;;;;5016836;28;20049;-78
2023/09/15 00:45:19;;;;;;;3.63;2.55;;;18.70;66.50;;;;;;5016632;28;20038;-80
2023/09/15 00:47:57;;;;;;;3.90;2.88;;;18.70;66.60;;;;;;4999669;28;20382;-78
2023/09/15 00:50:31;;;;;;;3.78;2.67;;;18.70;66.60;;;;;;4999752;28;20029;-78
2023/09/15 00:53:08;;;;;;;3.50;2.50;;;18.60;66.60;;;;;;4999662;28;20030;-78
2023/09/15 00:55:35;;;;;;;3.67;2.60;;;18.60;66.60;;;;;;5016385;28;20037;-77
2023/09/15 00:58:03;;;;;;;3.45;2.70;;;18.60;66.60;;;;;;5017439;28;20033;-78
2023/09/15 01:00:30;;;;;;;3.88;2.63;;;18.60;66.70;;;;;;4999488;28;20390;-78
2023/09/15 01:02:56;;;;;;;4.07;2.50;;;18.50;66.70;;;;;;4983721;28;20053;-79
2023/09/15 01:05:24;;;;;;;3.95;2.50;;;18.50;66.60;;;;;;4983734;28;20034;-78
2023/09/15 01:07:52;;;;;;;3.83;2.70;;;18.50;66.70;;;;;;4999128;28;20037;-78
2023/09/15 01:10:19;;;;;;;3.80;2.60;;;18.50;66.70;;;;;;4982959;28;20108;-78
2023/09/15 01:12:47;;;;;;;3.28;2.47;;;18.50;66.70;;;;;;5016935;28;20033;-78
2023/09/15 01:15:12;;;;;;;3.17;2.22;;;18.50;66.70;;;;;;5015246;28;20044;-78
2023/09/15 01:18:16;;;;;;;3.13;2.42;;;18.40;66.70;;;;;;5016165;28;20022;-78
2023/09/15 01:21:03;;;;;;;2.97;2.28;;;18.40;66.80;;;;;;5015176;28;20034;-79
2023/09/15 01:23:51;;;;;;;3.28;2.35;;;18.40;66.70;;;;;;5015448;28;20501;-77
2023/09/15 01:26:36;;;;;;;3.38;2.40;;;18.40;66.80;;;;;;5015263;28;20034;-78
2023/09/15 01:29:10;;;;;;;3.20;2.40;;;18.40;66.80;;;;;;4998282;28;20037;-78
2023/09/15 01:31:38;;;;;;;3.45;2.40;;;18.30;66.70;;;;;;5014974;28;20049;-78
2023/09/15 01:34:04;;;;;;;4.25;2.70;;;18.30;66.80;;;;;;4982486;28;20073;-78
2023/09/15 01:36:30;;;;;;;3.38;2.50;;;18.30;66.80;;;;;;4982302;28;20072;-78
2023/09/15 01:38:56;;;;;;;3.88;2.83;;;18.30;66.80;;;;;;4998874;28;20062;-79
2023/09/15 01:41:21;;;;;;;2.92;2.28;;;18.30;66.90;;;;;;4966254;28;20176;-78
2023/09/15 01:43:48;;;;;;;4.18;2.78;;;18.30;66.90;;;;;;4982445;28;20492;-78
2023/09/15 01:46:13;;;;;;;3.38;2.40;;;18.30;66.90;;;;;;4966238;28;20109;-78
2023/09/15 01:48:40;;;;;;;3.45;2.45;;;18.20;66.80;;;;;;4965745;28;20069;-81
2023/09/15 01:51:07;;;;;;;3.50;2.42;;;18.20;66.90;;;;;;4998560;28;20080;-77
2023/09/15 01:53:35;;;;;;;3.80;2.42;;;18.20;66.90;;;;;;4981988;28;20121;-78
2023/09/15 01:56:01;;;;;;;4.20;2.33;;;18.20;66.90;;;;;;4966547;28;20030;-78
2023/09/15 01:58:26;;;;;;;4.10;2.65;;;18.20;66.90;;;;;;4981978;28;20037;-78
2023/09/15 02:00:52;;;;;;;4.10;2.50;;;18.20;66.90;;;;;;5014427;28;20026;-78
2023/09/15 02:03:18;;;;;;;3.60;2.40;;;18.10;66.90;;;;;;4982232;28;20026;-78
2023/09/15 02:05:44;;;;;;;3.97;2.45;;;18.10;66.90;;;;;;5014400;28;20386;-78
2023/09/15 02:08:09;;;;;;;2.88;2.15;;;18.10;66.90;;;;;;4998714;28;20358;-80
2023/09/15 02:10:35;;;;;;;4.20;2.63;;;18.10;67.00;;;;;;5014081;28;20034;-78
2023/09/15 02:13:01;;;;;;;3.42;2.30;;;18.10;67.00;;;;;;4998051;28;20176;-78
2023/09/15 02:15:29;;;;;;;4.13;2.25;;;18.10;67.70;;;;;;4997809;28;20046;-78
2023/09/15 02:17:58;;;;;;;3.35;2.53;;;18.10;67.00;;;;;;5014680;28;20057;-78
2023/09/15 02:20:24;;;;;;;3.38;2.47;;;18.00;67.00;;;;;;4982508;28;20076;-78
2023/09/15 02:22:49;;;;;;;2.80;2.33;;;18.00;67.00;;;;;;4982290;28;20077;-78
2023/09/15 02:25:16;;;;;;;3.33;2.80;;;18.00;67.00;;;;;;4981459;28;20399;-78
2023/09/15 02:27:42;;;;;;;4.20;2.60;;;18.00;67.00;;;;;;4981691;28;20034;-77
2023/09/15 02:30:08;;;;;;;3.60;2.42;;;18.00;67.00;;;;;;4997478;28;20030;-80
2023/09/15 02:32:34;;;;;;;3.50;2.50;;;17.90;67.00;;;;;;4977595;28;20388;-79
2023/09/15 02:35:00;;;;;;;3.03;2.30;;;17.90;67.00;;;;;;4978272;28;20038;-78
2023/09/15 02:37:26;;;;;;;3.70;2.30;;;17.90;67.10;;;;;;5010521;28;20027;-78
2023/09/15 02:39:53;;;;;;;3.90;2.50;;;17.90;67.10;;;;;;4993462;28;20049;-79
2023/09/15 02:42:19;;;;;;;4.03;2.63;;;17.90;67.10;;;;;;4962343;28;20030;-78
2023/09/15 02:44:45;;;;;;;4.00;2.55;;;17.90;67.20;;;;;;4978053;28;20045;-78
2023/09/15 02:47:11;;;;;;;3.55;2.40;;;17.90;67.20;;;;;;4978459;28;20030;-78
2023/09/15 02:49:37;;;;;;;4.18;2.58;;;17.90;67.20;;;;;;5010446;28;20391;-79
2023/09/15 02:52:05;;;;;;;4.38;2.50;;;17.90;67.20;;;;;;4977734;28;20035;-78
2023/09/15 02:54:30;;;;;;;4.18;2.78;;;17.80;67.20;;;;;;4993894;28;20043;-78
2023/09/15 02:56:56;;;;;;;3.15;2.42;;;17.80;67.20;;;;;;4978537;28;20450;-78
2023/09/15 02:59:22;;;;;;;3.83;2.60;;;17.80;67.20;;;;;;4993945;28;20455;-77
2023/09/15 03:01:50;;;;;;;3.35;2.40;;;17.80;67.20;;;;;;4994862;28;20041;-79
2023/09/15 03:04:19;;;;;;;3.28;2.50;;;17.80;67.20;;;;;;4994345;28;20099;-78
2023/09/15 03:06:47;;;;;;;3.42;2.40;;;17.80;67.20;;;;;;4978245;28;20073;-77
2023/09/15 03:09:12;;;;;;;3.42;2.40;;;17.70;67.20;;;;;;4977076;28;20111;-78
2023/09/15 03:11:38;;;;;;;3.72;2.58;;;17.70;67.20;;;;;;4993657;28;20038;-78
2023/09/15 03:14:05;;;;;;;3.78;2.40;;;17.70;67.30;;;;;;4977680;28;20042;-78
2023/09/15 03:16:31;;;;;;;3.47;2.20;;;17.70;67.30;;;;;;4993470;28;20038;-78
2023/09/15 03:18:57;;;;;;;4.80;2.50;;;17.70;67.30;;;;;;4961443;28;20034;-80
2023/09/15 03:21:23;;;;;;;3.35;2.40;;;17.60;67.20;;;;;;4993525;28;20045;-78
2023/09/15 03:23:49;;;;;;;4.13;2.85;;;17.60;67.30;;;;;;4977454;28;20431;-78
2023/09/15 03:26:14;;;;;;;4.25;2.80;;;17.60;67.30;;;;;;4977386;28;20058;-78
2023/09/15 03:28:45;;;;;;;3.17;2.13;;;17.60;67.30;;;;;;4993659;28;20472;-78
2023/09/15 03:31:10;;;;;;;3.80;2.28;;;17.60;67.30;;;;;;4960934;28;20057;-78
2023/09/15 03:33:36;;;;;;;3.58;2.47;;;17.60;67.30;;;;;;4993567;28;20269;-78
2023/09/15 03:36:02;;;;;;;3.53;2.53;;;17.60;67.30;;;;;;4961881;28;20060;-78
2023/09/15 03:38:29;;;;;;;4.28;2.80;;;17.50;67.30;;;;;;4993162;28;20093;-79
2023/09/15 03:40:56;;;;;;;3.20;2.17;;;17.50;67.30;;;;;;4993133;28;20031;-79
2023/09/15 03:43:23;;;;;;;3.67;2.60;;;17.50;67.30;;;;;;4993326;28;20038;-79
2023/09/15 03:45:51;;;;;;;3.25;2.38;;;17.50;67.40;;;;;;4993229;28;20105;-78
2023/09/15 03:48:17;;;;;;;3.83;2.60;;;17.50;67.40;;;;;;4994354;28;20045;-78
2023/09/15 03:50:43;;;;;;;2.92;2.17;;;17.50;67.40;;;;;;4992863;28;20388;-79
2023/09/15 03:53:09;;;;;;;3.97;2.53;;;17.50;67.40;;;;;;4976842;28;20030;-79
2023/09/15 03:55:36;;;;;;;3.03;2.45;;;17.50;67.50;;;;;;4993041;28;20035;-78
2023/09/15 03:58:04;;;;;;;3.08;2.13;;;17.40;67.40;;;;;;4977056;28;20053;-79
2023/09/15 04:00:29;;;;;;;4.47;2.72;;;17.40;67.50;;;;;;4977031;28;20027;-78
2023/09/15 04:02:55;;;;;;;3.63;2.47;;;17.40;67.40;;;;;;4976924;28;20057;-79
2023/09/15 04:05:21;;;;;;;2.78;2.28;;;17.40;67.50;;;;;;4976390;28;20062;-81
2023/09/15 04:07:47;;;;;;;4.05;2.60;;;17.40;67.50;;;;;;4977505;28;20035;-78
2023/09/15 04:10:13;;;;;;;3.85;2.58;;;17.40;67.50;;;;;;4992786;28;20096;-78
2023/09/15 04:12:42;;;;;;;3.28;2.45;;;17.40;67.50;;;;;;4992910;28;20034;-78
2023/09/15 04:15:09;;;;;;;3.08;2.20;;;17.30;67.50;;;;;;5009243;28;20457;-78
2023/09/15 04:17:35;;;;;;;3.15;2.20;;;17.40;67.50;;;;;;4992834;28;20026;-79
2023/09/15 04:20:00;;;;;;;3.78;2.47;;;17.30;67.50;;;;;;4976904;28;20046;-79
2023/09/15 04:22:29;;;;;;;3.30;2.38;;;17.30;67.50;;;;;;5008775;28;20030;-78
2023/09/15 04:24:55;;;;;;;4.32;2.60;;;17.30;67.50;;;;;;4976952;28;20069;-77
2023/09/15 04:27:20;;;;;;;3.28;2.25;;;17.30;67.50;;;;;;4976795;28;20038;-78
2023/09/15 04:29:55;;;;;;;4.90;2.80;;;17.20;67.50;;;;;;5008712;28;20478;-78
2023/09/15 04:32:26;;;;;;;3.28;2.22;;;17.20;67.60;;;;;;4993275;28;20077;-77
2023/09/15 04:34:53;;;;;;;3.67;2.53;;;17.20;67.60;;;;;;4960627;28;20129;-79
2023/09/15 04:37:20;;;;;;;4.40;2.60;;;17.20;67.60;;;;;;5009006;28;20184;-79
2023/09/15 04:39:49;;;;;;;4.28;2.92;;;17.20;67.60;;;;;;4976745;28;20039;-79
2023/09/15 04:42:16;;;;;;;3.47;2.58;;;17.20;67.60;;;;;;4992842;28;20030;-78
2023/09/15 04:44:41;;;;;;;3.28;2.40;;;17.20;67.60;;;;;;4992754;28;20089;-79
2023/09/15 04:47:07;;;;;;;3.90;2.50;;;17.10;68.30;;;;;;4976067;28;20038;-78
2023/09/15 04:49:35;;;;;;;4.50;2.60;;;17.10;67.60;;;;;;4977059;28;20046;-78
2023/09/15 04:52:01;;;;;;;3.95;2.55;;;17.10;67.60;;;;;;4992752;28;20537;-79
2023/09/15 04:54:28;;;;;;;3.50;2.30;;;17.10;67.60;;;;;;4976033;28;20042;-78
2023/09/15 04:56:55;;;;;;;3.70;2.58;;;17.10;67.70;;;;;;4992654;28;20056;-78
2023/09/15 04:59:21;;;;;;;3.75;2.53;;;17.10;67.70;;;;;;4992560;28;20471;-77
2023/09/15 05:01:50;;;;;;;3.90;2.90;;;17.10;67.80;;;;;;4992728;28;20030;-78
2023/09/15 05:04:19;;;;;;;3.97;2.25;;;17.10;67.80;;;;;;4995326;28;20392;-79
2023/09/15 05:06:45;;;;;;;4.95;2.60;;;17.00;67.70;;;;;;4996011;28;20027;-77
2023/09/15 05:09:11;;;;;;;3.85;2.40;;;17.00;67.80;;;;;;4979377;28;20026;-78
2023/09/15 05:11:37;;;;;;;3.42;2.35;;;17.00;67.80;;;;;;4963629;28;20120;-78
2023/09/15 05:14:03;;;;;;;2.85;2.10;;;17.00;67.80;;;;;;5012083;28;20070;-78
2023/09/15 05:16:30;;;;;;;4.32;3.13;;;17.00;67.80;;;;;;4979648;28;20041;-77
2023/09/15 05:18:56;;;;;;;2.83;2.08;;;17.00;67.80;;;;;;4995925;28;20034;-78
2023/09/15 05:21:22;;;;;;;4.43;2.88;;;17.00;67.80;;;;;;5011950;28;20022;-79
2023/09/15 05:23:48;;;;;;;3.45;2.42;;;17.00;67.90;;;;;;4979616;28;20048;-79
2023/09/15 05:26:15;;;;;;;4.07;2.65;;;16.90;67.80;;;;;;5012146;28;20034;-77
2023/09/15 05:28:41;;;;;;;3.65;2.60;;;16.90;67.80;;;;;;5012097;28;20418;-77
2023/09/15 05:31:07;;;;;;;3.42;2.42;;;16.90;67.80;;;;;;4980748;28;20518;-78
2023/09/15 05:33:35;;;;;;;4.28;2.60;;;16.90;67.90;;;;;;4998624;28;20097;-77
2023/09/15 05:36:01;;;;;;;3.00;2.47;;;16.90;67.90;;;;;;4982495;28;20438;-78
2023/09/15 05:38:27;;;;;;;3.20;2.40;;;16.90;67.90;;;;;;4998568;28;20073;-77
2023/09/15 05:40:53;;;;;;;3.03;2.20;;;16.90;67.90;;;;;;4966329;28;20061;-77
2023/09/15 05:43:20;;;;;;;3.63;2.40;;;16.90;67.90;;;;;;5014746;28;20041;-77
2023/09/15 05:45:47;;;;;;;3.55;2.40;;;16.80;67.90;;;;;;4998545;28;20045;-77
2023/09/15 05:48:22;;;;;;;3.78;2.70;;;16.90;68.00;;;;;;4999219;28;20386;-76
2023/09/15 05:50:49;;;;;;;3.22;2.45;;;16.80;67.90;;;;;;4998434;28;20026;-76
2023/09/15 05:53:15;;;;;;;3.70;2.47;;;16.80;67.90;;;;;;4998156;28;20022;-78
2023/09/15 05:55:41;;;;;;;4.03;2.40;;;16.80;68.00;;;;;;5015714;28;20036;-78
2023/09/15 05:58:06;;;;;;;3.90;2.33;;;16.80;68.00;;;;;;4981917;28;20388;-78
2023/09/15 06:00:32;;;;;;;3.78;2.45;;;16.80;68.00;;;;;;4982357;28;20034;-78
2023/09/15 06:02:58;;;;;;;3.83;2.50;;;16.80;68.00;;;;;;5014826;28;20066;-78
2023/09/15 06:05:25;;;;;;;3.38;2.38;;;16.80;68.00;;;;;;4998384;28;20053;-78
2023/09/15 06:07:54;;;;;;;3.53;2.53;;;16.80;68.10;;;;;;4997817;28;20030;-78
2023/09/15 06:10:20;;;;;;;4.00;2.60;;;16.80;68.10;;;;;;4998347;28;20402;-83
2023/09/15 06:12:49;;;;;;;4.50;2.80;;;16.80;68.00;;;;;;4983072;28;20034;-78
2023/09/15 06:15:15;;;;;;;4.30;2.80;;;16.80;68.10;;;;;;4997276;28;20033;-77
2023/09/15 06:17:44;;;;;;;2.88;2.30;;;16.70;68.00;;;;;;4949884;28;20084;-78
2023/09/15 06:20:10;;;;;;;4.18;2.80;;;16.70;68.00;;;;;;4981923;28;20038;-78
2023/09/15 06:22:36;;;;;;;4.88;3.20;;;16.70;68.10;;;;;;4982164;28;20034;-79
2023/09/15 06:25:02;;;;;;;3.55;2.47;;;16.70;68.10;;;;;;4998207;28;20038;-79
2023/09/15 06:27:29;;;;;;;3.33;2.58;;;16.70;68.10;;;;;;4981685;28;20034;-77
2023/09/15 06:29:55;;;;;;;4.75;3.08;;;16.80;68.20;;;;;;5014628;28;20058;-77
2023/09/15 06:32:21;;;;;;;3.55;2.30;;;16.80;68.10;;;;;;4981003;28;20129;-78
2023/09/15 06:34:47;;;;;;;3.63;2.40;;;16.70;68.10;;;;;;5013613;28;20132;-78
2023/09/15 06:37:13;;;;;;;3.88;2.63;;;16.70;68.10;;;;;;5014859;28;20033;-78
2023/09/15 06:39:39;;;;;;;3.63;2.47;;;16.70;68.20;;;;;;4980730;28;20486;-81
2023/09/15 06:42:05;;;;;;;4.03;2.70;;;16.70;68.20;;;;;;4996788;28;20037;-77
2023/09/15 06:44:33;;;;;;;4.50;3.13;;;16.70;68.20;;;;;;4981096;28;20038;-78
2023/09/15 06:46:59;;;;;;;5.53;2.92;;;16.70;68.20;;;;;;4997171;28;20021;-80
2023/09/15 06:49:26;;;;;;;4.15;2.63;;;16.70;68.10;;;;;;5013808;28;20041;-78
2023/09/15 06:51:53;;;;;;;4.15;2.63;;;16.70;68.20;;;;;;4965406;28;20034;-78
2023/09/15 06:54:19;;;;;;;4.38;2.80;;;16.70;68.20;;;;;;5014393;28;20092;-83
2023/09/15 06:56:45;;;;;;;4.30;2.83;;;16.70;68.20;;;;;;5014609;28;20521;-83
2023/09/15 06:59:11;;;;;;;3.10;2.50;;;16.70;68.20;;;;;;4997128;28;20026;-78
2023/09/15 07:01:36;;;;;;;3.70;2.42;;;16.70;68.20;;;;;;5013603;28;20046;-78
2023/09/15 07:04:03;;;;;;;3.55;2.58;;;16.70;68.20;;;;;;4997543;28;20038;-77
2023/09/15 07:06:32;;;;;;;3.30;2.60;;;16.70;68.20;;;;;;4948875;28;20033;-79
2023/09/15 07:08:58;;;;;;;3.47;2.65;;;16.70;68.30;;;;;;5012620;28;20033;-76
2023/09/15 07:11:24;;;;;;;5.32;2.92;;;16.70;68.80;;;;;;4981245;28;20022;-78
2023/09/15 07:13:50;;;;;;;3.95;2.55;;;16.70;68.20;;;;;;5013829;28;20120;-78
2023/09/15 07:16:16;;;;;;;3.83;2.83;;;16.80;68.30;;;;;;4997467;28;20482;-81
2023/09/15 07:18:42;;;;;;;3.80;2.63;;;16.70;68.20;;;;;;4996353;28;20030;-79
2023/09/15 07:21:08;;;;;;;3.55;2.53;;;16.80;68.30;;;;;;4963862;28;20034;-79
2023/09/15 07:23:34;;;;;;;4.40;2.80;;;16.70;68.20;;;;;;4980475;28;20467;-77
2023/09/15 07:25:59;;;;;;;3.83;2.70;;;16.80;68.20;;;;;;4995613;28;20044;-80
2023/09/15 07:28:25;;;;;;;3.50;2.47;;;16.80;68.20;;;;;;5012815;28;20030;-78
2023/09/15 07:30:51;;;;;;;3.75;2.55;;;16.80;68.20;;;;;;4996815;28;20034;-77
2023/09/15 07:33:17;;;;;;;4.35;2.70;;;16.80;68.20;;;;;;4996063;28;20057;-77
2023/09/15 07:35:42;;;;;;;3.70;2.40;;;16.80;68.30;;;;;;5013415;28;20053;-77
2023/09/15 07:38:08;;;;;;;3.97;2.65;;;16.80;68.30;;;;;;4996273;28;20041;-78
2023/09/15 07:40:34;;;;;;;5.10;2.85;;;16.80;68.20;;;;;;4996172;28;20056;-77
2023/09/15 07:43:00;;;;;;;5.18;2.67;;;16.80;68.20;;;;;;5013268;28;20050;-78
2023/09/15 07:45:27;;;;;;;4.93;2.70;;;16.80;68.20;;;;;;4980243;28;20038;-78
2023/09/15 07:47:52;;;;;;;3.35;2.50;;;16.90;68.30;;;;;;4979966;28;20037;-77
2023/09/15 07:50:18;;;;;;;4.20;2.58;;;16.90;68.30;;;;;;4980123;28;20038;-77
2023/09/15 07:52:45;;;;;;;3.90;2.63;;;16.90;68.30;;;;;;5011961;28;20036;-78
2023/09/15 07:55:11;;;;;;;4.13;2.50;;;16.90;68.30;;;;;;4980429;28;20121;-77
2023/09/15 07:57:38;;;;;;;3.90;2.65;;;16.90;68.30;;;;;;4979840;28;20210;-78
2023/09/15 08:00:06;;;;;;;4.07;2.50;;;16.90;68.30;;;;;;4979513;28;20037;-78
2023/09/15 08:02:38;;;;;;;4.22;2.60;;;16.90;68.30;;;;;;4981378;28;20052;-78
2023/09/15 08:05:04;;;;;;;3.92;2.72;;;16.90;68.30;;;;;;4963804;28;20065;-78
2023/09/15 08:07:30;;;;;;;4.05;2.70;;;16.90;68.30;;;;;;4995829;28;20462;-77
2023/09/15 08:09:56;;;;;;;3.58;2.60;;;17.00;68.30;;;;;;4995558;28;20034;-77
2023/09/15 08:12:23;;;;;;;4.35;2.55;;;17.00;68.30;;;;;;4979963;28;20116;-77
2023/09/15 08:14:49;;;;;;;3.75;2.38;;;17.00;68.30;;;;;;5013306;28;20034;-79
2023/09/15 08:17:16;;;;;;;3.25;2.15;;;17.00;68.40;;;;;;4979967;28;20096;-79
2023/09/15 08:19:42;;;;;;;3.85;2.70;;;17.00;68.40;;;;;;4996057;28;20140;-78
2023/09/15 08:22:08;;;;;;;3.47;2.40;;;17.00;68.30;;;;;;4996172;28;20080;-78
2023/09/15 08:24:34;;;;;;;3.88;2.22;;;17.10;68.40;;;;;;4996031;28;20104;-78
2023/09/15 08:27:00;;;;;;;4.75;2.50;;;17.10;68.40;;;;;;4979765;28;20042;-78
2023/09/15 08:29:25;;;;;;;4.10;2.40;;;17.10;68.30;;;;;;4979715;28;20100;-77
2023/09/15 08:31:51;;;;;;;3.22;2.20;;;17.10;68.30;;;;;;4963199;28;20074;-78
2023/09/15 08:34:17;;;;;;;3.13;2.30;;;17.10;68.30;;;;;;4995640;28;20038;-78
2023/09/15 08:36:43;;;;;;;4.10;2.40;;;17.20;68.40;;;;;;5012456;28;20034;-78
2023/09/15 08:39:09;;;;;;;3.72;2.55;;;17.20;68.40;;;;;;5014243;28;20022;-78
2023/09/15 08:41:40;;;;;;;2.83;2.10;;;17.20;68.40;;;;;;5000318;28;20088;-77
2023/09/15 08:44:09;;;;;;;3.03;2.03;;;17.30;68.50;;;;;;4999331;28;20128;-78
2023/09/15 08:46:39;;;;;;;3.65;2.33;;;17.30;68.50;;;;;;4999310;28;20025;-78
2023/09/15 08:49:07;;;;;;;3.17;2.35;;;17.30;68.40;;;;;;4983211;28;20034;-77
2023/09/15 08:51:33;;;;;;;3.60;2.25;;;17.30;68.40;;;;;;5015621;28;20026;-79
2023/09/15 08:54:01;;;;;;;3.25;2.17;;;17.40;68.40;;;;;;4983166;28;20141;-78
2023/09/15 08:56:27;;;;;;;3.67;2.38;;;17.40;68.40;;;;;;4999923;28;20037;-78
2023/09/15 08:58:53;;;;;;;3.60;2.30;;;17.50;68.40;;;;;;4982841;28;20030;-78
2023/09/15 09:01:19;;;;;;;3.03;2.25;;;17.50;68.40;;;;;;5016509;28;20022;-77
2023/09/15 09:03:45;;;;;;;3.78;2.47;;;17.50;68.30;;;;;;4983224;28;20037;-77
2023/09/15 09:06:15;;;;;;;3.42;2.40;;;17.60;68.20;;;;;;5015530;28;20029;-79
2023/09/15 09:08:44;;;;;;;3.05;2.13;;;17.70;68.20;;;;;;4999098;28;20172;-78
2023/09/15 09:11:10;;;;;;;2.97;2.15;;;17.80;68.10;;;;;;4998931;28;20034;-76
2023/09/15 09:13:36;;;;;;;4.22;2.10;;;17.80;68.00;;;;;;5015197;28;20056;-77
2023/09/15 09:16:07;;;;;;;2.78;2.03;;;17.90;67.90;;;;;;5014891;28;20026;-78
2023/09/15 09:18:34;;;;;;;2.92;2.30;;;18.00;67.80;;;;;;5016147;28;20028;-77
2023/09/15 09:21:03;;;;;;;2.78;2.00;;;18.10;67.70;;;;;;4998563;28;20080;-76
2023/09/15 09:23:29;;;;;;;3.70;2.30;;;18.10;67.60;;;;;;4982406;28;20153;-79
2023/09/15 09:25:54;;;;;;;2.88;2.13;;;18.20;67.50;;;;;;4982798;28;20026;-77
2023/09/15 09:28:21;;;;;;;2.85;2.17;;;18.30;67.50;;;;;;4998565;28;20037;-77
2023/09/15 09:30:47;;;;;;;4.40;2.40;;;18.40;67.40;;;;;;5015051;28;20037;-77
2023/09/15 09:33:13;;;;;;;4.13;2.55;;;18.40;67.30;;;;;;4982225;28;20145;-76
2023/09/15 09:35:39;;;;;;;4.10;2.50;;;18.50;67.20;;;;;;4982437;28;20133;-78
2023/09/15 09:38:05;;;;;;;3.47;2.28;;;18.60;67.10;;;;;;5016000;28;20054;-77
2023/09/15 09:40:34;;;;;;;4.05;2.58;;;18.70;67.10;;;;;;4982329;28;20064;-77
2023/09/15 09:43:00;;;;;;;3.35;2.25;;;18.80;67.10;;;;;;4998430;28;20033;-78
2023/09/15 09:45:27;;;;;;;4.07;2.40;;;18.90;67.00;;;;;;4999059;28;20044;-77
2023/09/15 09:47:58;;;;;;;3.35;2.22;;;18.90;66.90;;;;;;4998384;28;20387;-78
2023/09/15 09:50:26;;;;;;;2.60;2.20;;;19.00;66.90;;;;;;4998036;28;20033;-77
2023/09/15 09:52:52;;;;;;;3.10;2.08;;;19.10;66.90;;;;;;5016423;28;20046;-77
2023/09/15 09:55:18;;;;;;;2.80;2.20;;;19.20;66.90;;;;;;4998021;28;20046;-77
2023/09/15 09:57:44;;;;;;;3.90;2.47;;;19.30;66.80;;;;;;5015467;28;20030;-76
2023/09/15 10:00:10;;;;;;;3.35;2.35;;;19.40;67.40;;;;;;4998160;28;20352;-78
2023/09/15 10:02:40;;;;;;;3.80;2.20;;;19.50;66.70;;;;;;4998164;28;20034;-77
2023/09/15 10:05:06;;;;;;;3.53;2.35;;;19.60;66.70;;;;;;4998434;28;20550;-78
2023/09/15 10:07:33;;;;;;;3.25;2.05;;;19.60;66.70;;;;;;4981831;28;20116;-79
2023/09/15 10:09:59;;;;;;;3.60;2.38;;;19.70;66.60;;;;;;5015274;28;20030;-78
2023/09/15 10:12:25;;;;;;;3.67;2.10;;;19.80;66.60;;;;;;4997918;28;20060;-79
2023/09/15 10:14:52;;;;;;;4.22;2.35;;;19.90;66.50;;;;;;4998560;28;20037;-78
2023/09/15 10:17:18;;;;;;;2.95;2.20;;;20.00;66.50;;;;;;4997794;28;20057;-79
2023/09/15 10:19:50;;;;;;;4.00;2.30;;;20.10;66.40;;;;;;4981675;28;20053;-78
2023/09/15 10:22:17;;;;;;;3.70;2.40;;;20.20;66.40;;;;;;4997788;28;20470;-78
2023/09/15 10:24:44;;;;;;;3.78;2.40;;;20.20;66.30;;;;;;5013659;28;20062;-79
2023/09/15 10:27:10;;;;;;;3.40;2.15;;;20.40;66.30;;;;;;4981734;28;20026;-81
2023/09/15 10:29:37;;;;;;;3.28;2.00;;;20.50;66.40;;;;;;4997624;28;20034;-79
2023/09/15 10:32:04;;;;;;;2.58;1.92;;;20.60;66.30;;;;;;4997545;28;20101;-78
2023/09/15 10:34:32;;;;;;;3.30;1.80;;;20.60;66.20;;;;;;4965512;28;20092;-78
2023/09/15 10:37:04;;;;;;;4.07;2.20;;;20.70;66.20;;;;;;4981831;28;20056;-78
2023/09/15 10:39:38;;;;;;;3.40;2.30;;;20.80;66.10;;;;;;4997249;28;20030;-80
2023/09/15 10:42:08;;;;;;;2.85;2.10;;;20.90;66.00;;;;;;4997568;28;20053;-82
2023/09/15 10:44:34;;;;;;;3.22;2.13;;;21.00;65.80;;;;;;4981829;28;20038;-79
2023/09/15 10:47:00;;;;;;;2.67;1.95;;;21.10;65.80;;;;;;5014561;28;20030;-79
2023/09/15 10:49:26;;;;;;;3.28;2.22;;;21.10;65.70;;;;;;5014315;28;20418;-77
2023/09/15 10:51:57;;;;;;;3.08;2.00;;;21.20;65.70;;;;;;4980932;28;20041;-78
2023/09/15 10:54:30;;;;;;;3.25;2.15;;;21.30;65.80;;;;;;4980964;28;20549;-81
2023/09/15 10:56:57;;;;;;;3.45;2.33;;;21.30;65.70;;;;;;5015050;28;20462;-81
2023/09/15 10:59:24;;;;;;;3.63;2.20;;;21.40;65.80;;;;;;4997384;28;20032;-78
2023/09/15 11:01:50;;;;;;;2.92;2.00;;;21.50;65.90;;;;;;4996181;28;20033;-79
2023/09/15 11:04:22;;;;;;;3.38;2.20;;;21.50;65.90;;;;;;4997697;28;20482;-78
2023/09/15 11:06:50;;;;;;;2.72;1.92;;;21.60;66.00;;;;;;4997709;28;20037;-77
2023/09/15 11:09:17;;;;;;;3.00;2.20;;;21.60;66.10;;;;;;5014586;28;20096;-79
2023/09/15 11:11:45;;;;;;;3.53;2.30;;;21.70;66.30;;;;;;4980827;28;20030;-78
2023/09/15 11:14:21;;;;;;;2.95;2.10;;;21.70;66.30;;;;;;4980803;28;20091;-77
2023/09/15 11:16:53;;;;;;;3.20;2.20;;;21.70;66.40;;;;;;4997026;28;20217;-77
2023/09/15 11:19:24;;;;;;;2.67;1.85;;;21.80;66.50;;;;;;4997025;28;20018;-79
2023/09/15 11:21:50;;;;;;;3.35;2.30;;;21.80;66.50;;;;;;4997043;28;20034;-79
2023/09/15 11:24:16;;;;;;;3.67;2.03;;;21.90;66.60;;;;;;4980379;28;20041;-81
2023/09/15 11:26:47;;;;;;;3.40;2.20;;;21.90;66.60;;;;;;4997271;28;20030;-77
2023/09/15 11:29:14;;;;;;;3.50;2.20;;;22.00;66.80;;;;;;5013614;28;20132;-76
2023/09/15 11:31:40;;;;;;;3.72;2.03;;;22.00;66.80;;;;;;4996361;28;20128;-80
2023/09/15 11:34:08;;;;;;;3.40;2.05;;;22.00;66.90;;;;;;5013518;28;20471;-78
2023/09/15 11:36:35;;;;;;;2.75;2.00;;;22.00;67.00;;;;;;4996739;28;20140;-78
2023/09/15 11:39:12;;;;;;;3.85;2.10;;;22.10;67.10;;;;;;5013673;28;20387;-79
2023/09/15 11:41:39;;;;;;;3.05;1.90;;;22.10;67.20;;;;;;4997250;28;20029;-80
2023/09/15 11:44:09;;;;;;;2.70;1.98;;;22.10;67.20;;;;;;4980719;28;20480;-78
2023/09/15 11:46:39;;;;;;;3.08;1.95;;;22.10;67.30;;;;;;4980588;28;20423;-79
2023/09/15 11:49:05;;;;;;;2.90;1.98;;;22.10;67.30;;;;;;4980214;28;20387;-79
2023/09/15 11:51:31;;;;;;;3.65;2.38;;;22.10;67.20;;;;;;4979868;28;20109;-79
2023/09/15 11:54:00;;;;;;;3.63;2.22;;;22.10;67.20;;;;;;4980648;28;20049;-78
2023/09/15 11:56:26;;;;;;;3.05;2.30;;;22.20;67.30;;;;;;4996641;28;20092;-79
2023/09/15 11:58:53;;;;;;;3.20;2.10;;;22.20;67.30;;;;;;5013569;28;20113;-79
2023/09/15 12:01:19;;;;;;;2.83;2.00;;;22.20;67.30;;;;;;5014081;28;20026;-79
2023/09/15 12:03:52;;;;;;;3.28;1.90;;;22.20;67.30;;;;;;4996107;28;20033;-79
2023/09/15 12:06:19;;;;;;;3.03;2.10;;;22.20;67.40;;;;;;4979725;28;20089;-79
2023/09/15 12:08:50;;;;;;;3.05;2.03;;;22.20;67.30;;;;;;4997028;28;20045;-79
2023/09/15 12:11:17;;;;;;;2.90;2.28;;;22.20;67.20;;;;;;4996294;28;20061;-78
2023/09/15 12:13:46;;;;;;;3.65;2.15;;;22.20;67.00;;;;;;5015802;28;20025;-79
2023/09/15 12:16:19;;;;;;;3.30;2.20;;;22.20;67.00;;;;;;5000748;28;20112;-79
2023/09/15 12:18:46;;;;;;;2.72;1.85;;;22.20;67.00;;;;;;5000845;28;20026;-79
2023/09/15 12:21:13;;;;;;;2.70;1.95;;;22.30;67.10;;;;;;5000295;28;20038;-79
2023/09/15 12:23:39;;;;;;;2.85;1.83;;;22.20;67.00;;;;;;5016382;28;20108;-78
2023/09/15 12:26:05;;;;;;;3.78;2.13;;;22.30;67.00;;;;;;4999787;28;20034;-79
2023/09/15 12:28:32;;;;;;;3.50;2.08;;;22.30;67.00;;;;;;5016316;28;20104;-79
2023/09/15 12:30:59;;;;;;;3.05;1.98;;;22.30;67.00;;;;;;4999969;28;20030;-80
2023/09/15 12:33:28;;;;;;;3.42;2.30;;;22.30;67.00;;;;;;5017798;28;20050;-78
2023/09/15 12:35:53;;;;;;;2.80;1.85;;;22.30;67.00;;;;;;5016306;28;20038;-79
2023/09/15 12:38:19;;;;;;;3.03;2.15;;;22.30;67.00;;;;;;5017021;28;20030;-79
2023/09/15 12:40:46;;;;;;;3.42;2.08;;;22.30;67.00;;;;;;4999595;28;20060;-78
2023/09/15 12:43:13;;;;;;;2.83;1.90;;;22.40;67.00;;;;;;4999606;28;20029;-79
2023/09/15 12:45:39;;;;;;;3.25;2.15;;;22.40;67.00;;;;;;5015953;28;20038;-79
2023/09/15 12:48:04;;;;;;;2.85;1.95;;;22.40;67.00;;;;;;4999479;28;20054;-79